sensor_id;sensor_type;location;lat;lon;timestamp;P1;durP1;ratioP1;P2;durP2;ratioP2
36423;SDS011;22458;45.328;9.514;2023-03-30T00:00:54;4.38;;;2.45;;
36423;SDS011;22458;45.328;9.514;2023-03-30T00:03:20;4.40;;;2.67;;
36423;SDS011;22458;45.328;9.514;2023-03-30T00:05:47;7.32;;;3.00;;
36423;SDS011;22458;45.328;9.514;2023-03-30T00:08:15;3.85;;;2.60;;
36423;SDS011;22458;45.328;9.514;2023-03-30T00:10:45;2.83;;;2.50;;
36423;SDS011;22458;45.328;9.514;2023-03-30T00:13:11;10.43;;;2.33;;
36423;SDS011;22458;45.328;9.514;2023-03-30T00:15:38;5.60;;;3.47;;
36423;SDS011;22458;45.328;9.514;2023-03-30T00:18:05;6.05;;;2.95;;
36423;SDS011;22458;45.328;9.514;2023-03-30T00:20:31;8.18;;;3.13;;
36423;SDS011;22458;45.328;9.514;2023-03-30T00:22:56;4.80;;;2.90;;
36423;SDS011;22458;45.328;9.514;2023-03-30T00:25:22;8.10;;;2.92;;
36423;SDS011;22458;45.328;9.514;2023-03-30T00:27:48;6.93;;;3.22;;
36423;SDS011;22458;45.328;9.514;2023-03-30T00:30:15;5.55;;;2.88;;
36423;SDS011;22458;45.328;9.514;2023-03-30T00:32:42;5.70;;;2.70;;
36423;SDS011;22458;45.328;9.514;2023-03-30T00:35:09;4.15;;;2.72;;
36423;SDS011;22458;45.328;9.514;2023-03-30T00:37:37;5.10;;;2.92;;
36423;SDS011;22458;45.328;9.514;2023-03-30T00:40:07;6.82;;;3.22;;
36423;SDS011;22458;45.328;9.514;2023-03-30T00:42:34;6.65;;;3.10;;
36423;SDS011;22458;45.328;9.514;2023-03-30T00:48:22;5.85;;;3.40;;
36423;SDS011;22458;45.328;9.514;2023-03-30T00:51:02;8.40;;;3.10;;
36423;SDS011;22458;45.328;9.514;2023-03-30T00:53:36;5.57;;;2.70;;
36423;SDS011;22458;45.328;9.514;2023-03-30T00:56:05;4.40;;;3.15;;
36423;SDS011;22458;45.328;9.514;2023-03-30T00:58:32;4.07;;;2.58;;
36423;SDS011;22458;45.328;9.514;2023-03-30T01:01:01;8.02;;;3.45;;
36423;SDS011;22458;45.328;9.514;2023-03-30T01:03:31;7.68;;;3.85;;
36423;SDS011;22458;45.328;9.514;2023-03-30T01:08:27;5.97;;;3.40;;
36423;SDS011;22458;45.328;9.514;2023-03-30T01:10:57;6.05;;;3.38;;
36423;SDS011;22458;45.328;9.514;2023-03-30T01:13:28;4.45;;;2.83;;
36423;SDS011;22458;45.328;9.514;2023-03-30T01:26:48;5.53;;;3.03;;
36423;SDS011;22458;45.328;9.514;2023-03-30T01:32:03;5.13;;;3.10;;
36423;SDS011;22458;45.328;9.514;2023-03-30T01:49:02;6.13;;;3.42;;
36423;SDS011;22458;45.328;9.514;2023-03-30T01:57:30;6.68;;;3.47;;
36423;SDS011;22458;45.328;9.514;2023-03-30T02:00:06;6.60;;;3.75;;
36423;SDS011;22458;45.328;9.514;2023-03-30T02:03:01;6.63;;;3.63;;
36423;SDS011;22458;45.328;9.514;2023-03-30T02:05:29;5.93;;;3.55;;
36423;SDS011;22458;45.328;9.514;2023-03-30T02:07:58;8.95;;;3.85;;
36423;SDS011;22458;45.328;9.514;2023-03-30T02:10:31;6.93;;;3.65;;
36423;SDS011;22458;45.328;9.514;2023-03-30T02:12:59;5.60;;;3.50;;
36423;SDS011;22458;45.328;9.514;2023-03-30T02:15:29;5.68;;;3.53;;
36423;SDS011;22458;45.328;9.514;2023-03-30T02:17:58;6.43;;;3.58;;
36423;SDS011;22458;45.328;9.514;2023-03-30T02:20:24;6.82;;;3.67;;
36423;SDS011;22458;45.328;9.514;2023-03-30T02:22:52;6.13;;;3.85;;
36423;SDS011;22458;45.328;9.514;2023-03-30T02:25:18;6.30;;;3.75;;
36423;SDS011;22458;45.328;9.514;2023-03-30T02:27:45;7.53;;;3.80;;
36423;SDS011;22458;45.328;9.514;2023-03-30T02:30:12;7.00;;;3.38;;
36423;SDS011;22458;45.328;9.514;2023-03-30T02:32:43;5.53;;;3.47;;
36423;SDS011;22458;45.328;9.514;2023-03-30T02:40:41;5.80;;;3.72;;
36423;SDS011;22458;45.328;9.514;2023-03-30T02:43:32;4.72;;;3.40;;
36423;SDS011;22458;45.328;9.514;2023-03-30T02:46:04;7.38;;;4.05;;
36423;SDS011;22458;45.328;9.514;2023-03-30T02:48:59;5.78;;;4.03;;
36423;SDS011;22458;45.328;9.514;2023-03-30T02:51:35;9.43;;;4.35;;
36423;SDS011;22458;45.328;9.514;2023-03-30T03:00:21;7.85;;;4.43;;
36423;SDS011;22458;45.328;9.514;2023-03-30T03:02:58;7.55;;;4.90;;
36423;SDS011;22458;45.328;9.514;2023-03-30T03:05:32;7.78;;;3.92;;
36423;SDS011;22458;45.328;9.514;2023-03-30T03:08:23;4.20;;;3.78;;
36423;SDS011;22458;45.328;9.514;2023-03-30T03:10:49;8.02;;;4.22;;
36423;SDS011;22458;45.328;9.514;2023-03-30T03:13:16;9.13;;;4.20;;
36423;SDS011;22458;45.328;9.514;2023-03-30T03:15:44;4.45;;;4.00;;
36423;SDS011;22458;45.328;9.514;2023-03-30T03:18:11;5.18;;;4.50;;
36423;SDS011;22458;45.328;9.514;2023-03-30T03:20:38;6.15;;;4.03;;
36423;SDS011;22458;45.328;9.514;2023-03-30T03:23:04;7.13;;;4.03;;
36423;SDS011;22458;45.328;9.514;2023-03-30T03:25:38;7.55;;;5.57;;
36423;SDS011;22458;45.328;9.514;2023-03-30T03:28:05;6.38;;;4.55;;
36423;SDS011;22458;45.328;9.514;2023-03-30T03:30:39;6.55;;;3.75;;
36423;SDS011;22458;45.328;9.514;2023-03-30T03:33:14;6.53;;;4.90;;
36423;SDS011;22458;45.328;9.514;2023-03-30T03:35:45;6.93;;;4.82;;
36423;SDS011;22458;45.328;9.514;2023-03-30T03:38:12;9.20;;;4.82;;
36423;SDS011;22458;45.328;9.514;2023-03-30T03:40:39;9.82;;;5.20;;
36423;SDS011;22458;45.328;9.514;2023-03-30T03:43:05;6.32;;;5.07;;
36423;SDS011;22458;45.328;9.514;2023-03-30T03:45:32;7.10;;;5.28;;
36423;SDS011;22458;45.328;9.514;2023-03-30T03:47:59;10.45;;;5.53;;
36423;SDS011;22458;45.328;9.514;2023-03-30T03:50:38;9.38;;;5.50;;
36423;SDS011;22458;45.328;9.514;2023-03-30T03:53:04;8.77;;;5.40;;
36423;SDS011;22458;45.328;9.514;2023-03-30T03:55:30;9.50;;;5.80;;
36423;SDS011;22458;45.328;9.514;2023-03-30T03:57:59;9.75;;;6.25;;
36423;SDS011;22458;45.328;9.514;2023-03-30T04:00:25;8.27;;;5.75;;
36423;SDS011;22458;45.328;9.514;2023-03-30T04:02:51;10.23;;;6.60;;
36423;SDS011;22458;45.328;9.514;2023-03-30T04:05:18;9.57;;;5.88;;
36423;SDS011;22458;45.328;9.514;2023-03-30T04:07:44;9.35;;;6.22;;
36423;SDS011;22458;45.328;9.514;2023-03-30T04:10:12;11.50;;;6.22;;
36423;SDS011;22458;45.328;9.514;2023-03-30T04:12:58;10.52;;;6.22;;
36423;SDS011;22458;45.328;9.514;2023-03-30T04:15:24;9.43;;;6.47;;
36423;SDS011;22458;45.328;9.514;2023-03-30T04:18:05;8.55;;;7.10;;
36423;SDS011;22458;45.328;9.514;2023-03-30T04:20:58;10.73;;;7.40;;
36423;SDS011;22458;45.328;9.514;2023-03-30T04:23:53;8.52;;;5.85;;
36423;SDS011;22458;45.328;9.514;2023-03-30T04:26:37;9.98;;;6.13;;
36423;SDS011;22458;45.328;9.514;2023-03-30T04:29:18;9.50;;;6.03;;
36423;SDS011;22458;45.328;9.514;2023-03-30T04:32:03;8.38;;;5.93;;
36423;SDS011;22458;45.328;9.514;2023-03-30T04:34:54;8.98;;;5.63;;
36423;SDS011;22458;45.328;9.514;2023-03-30T04:37:37;12.90;;;6.03;;
36423;SDS011;22458;45.328;9.514;2023-03-30T04:40:06;10.38;;;5.50;;
36423;SDS011;22458;45.328;9.514;2023-03-30T04:42:52;8.70;;;5.88;;
36423;SDS011;22458;45.328;9.514;2023-03-30T04:45:38;6.93;;;5.57;;
36423;SDS011;22458;45.328;9.514;2023-03-30T04:48:33;7.45;;;5.20;;
36423;SDS011;22458;45.328;9.514;2023-03-30T04:51:22;7.50;;;5.30;;
36423;SDS011;22458;45.328;9.514;2023-03-30T04:53:51;7.43;;;5.20;;
36423;SDS011;22458;45.328;9.514;2023-03-30T04:56:43;8.52;;;5.57;;
36423;SDS011;22458;45.328;9.514;2023-03-30T04:59:38;6.90;;;5.47;;
36423;SDS011;22458;45.328;9.514;2023-03-30T05:02:26;7.68;;;5.15;;
36423;SDS011;22458;45.328;9.514;2023-03-30T05:05:10;6.43;;;5.55;;
36423;SDS011;22458;45.328;9.514;2023-03-30T05:07:51;7.57;;;5.60;;
36423;SDS011;22458;45.328;9.514;2023-03-30T05:10:35;7.50;;;5.50;;
36423;SDS011;22458;45.328;9.514;2023-03-30T05:13:22;9.55;;;6.38;;
36423;SDS011;22458;45.328;9.514;2023-03-30T05:16:20;10.48;;;6.30;;
36423;SDS011;22458;45.328;9.514;2023-03-30T05:19:03;6.75;;;6.00;;
36423;SDS011;22458;45.328;9.514;2023-03-30T05:21:55;8.15;;;6.50;;
36423;SDS011;22458;45.328;9.514;2023-03-30T05:24:26;9.90;;;5.90;;
36423;SDS011;22458;45.328;9.514;2023-03-30T05:27:08;6.63;;;5.50;;
36423;SDS011;22458;45.328;9.514;2023-03-30T05:29:57;7.38;;;5.63;;
36423;SDS011;22458;45.328;9.514;2023-03-30T05:32:29;7.03;;;5.35;;
36423;SDS011;22458;45.328;9.514;2023-03-30T05:35:02;12.25;;;6.03;;
36423;SDS011;22458;45.328;9.514;2023-03-30T05:37:50;8.73;;;6.05;;
36423;SDS011;22458;45.328;9.514;2023-03-30T05:40:38;6.05;;;5.43;;
36423;SDS011;22458;45.328;9.514;2023-03-30T05:43:19;7.53;;;6.00;;
36423;SDS011;22458;45.328;9.514;2023-03-30T05:46:08;8.25;;;5.95;;
36423;SDS011;22458;45.328;9.514;2023-03-30T05:48:46;11.17;;;6.53;;
36423;SDS011;22458;45.328;9.514;2023-03-30T05:51:25;11.40;;;6.63;;
36423;SDS011;22458;45.328;9.514;2023-03-30T05:54:11;8.93;;;5.55;;
36423;SDS011;22458;45.328;9.514;2023-03-30T05:56:56;10.15;;;5.78;;
36423;SDS011;22458;45.328;9.514;2023-03-30T05:59:29;9.80;;;5.85;;
36423;SDS011;22458;45.328;9.514;2023-03-30T06:02:04;9.80;;;5.78;;
36423;SDS011;22458;45.328;9.514;2023-03-30T06:04:31;10.40;;;5.70;;
36423;SDS011;22458;45.328;9.514;2023-03-30T06:06:59;11.50;;;5.90;;
36423;SDS011;22458;45.328;9.514;2023-03-30T06:09:25;7.05;;;5.70;;
36423;SDS011;22458;45.328;9.514;2023-03-30T06:11:52;9.93;;;6.32;;
36423;SDS011;22458;45.328;9.514;2023-03-30T06:14:21;14.73;;;6.28;;
36423;SDS011;22458;45.328;9.514;2023-03-30T06:17:07;9.15;;;5.97;;
36423;SDS011;22458;45.328;9.514;2023-03-30T06:19:37;12.77;;;6.43;;
36423;SDS011;22458;45.328;9.514;2023-03-30T06:22:03;10.82;;;5.97;;
36423;SDS011;22458;45.328;9.514;2023-03-30T06:24:45;10.18;;;6.15;;
36423;SDS011;22458;45.328;9.514;2023-03-30T06:27:11;11.63;;;6.78;;
36423;SDS011;22458;45.328;9.514;2023-03-30T06:29:37;10.50;;;6.00;;
36423;SDS011;22458;45.328;9.514;2023-03-30T06:32:03;9.75;;;6.82;;
36423;SDS011;22458;45.328;9.514;2023-03-30T06:35:07;15.35;;;6.22;;
36423;SDS011;22458;45.328;9.514;2023-03-30T06:37:34;9.75;;;6.47;;
36423;SDS011;22458;45.328;9.514;2023-03-30T06:40:03;10.70;;;6.40;;
36423;SDS011;22458;45.328;9.514;2023-03-30T06:42:37;10.50;;;6.43;;
36423;SDS011;22458;45.328;9.514;2023-03-30T06:45:19;9.80;;;6.47;;
36423;SDS011;22458;45.328;9.514;2023-03-30T06:47:45;9.45;;;6.82;;
36423;SDS011;22458;45.328;9.514;2023-03-30T06:50:13;10.02;;;7.00;;
36423;SDS011;22458;45.328;9.514;2023-03-30T06:52:41;9.43;;;6.38;;
36423;SDS011;22458;45.328;9.514;2023-03-30T06:55:07;9.45;;;6.57;;
36423;SDS011;22458;45.328;9.514;2023-03-30T06:57:34;8.90;;;6.22;;
36423;SDS011;22458;45.328;9.514;2023-03-30T07:00:01;9.40;;;6.28;;
36423;SDS011;22458;45.328;9.514;2023-03-30T07:02:31;8.63;;;6.57;;
36423;SDS011;22458;45.328;9.514;2023-03-30T07:05:18;10.13;;;6.40;;
36423;SDS011;22458;45.328;9.514;2023-03-30T07:08:08;10.68;;;7.03;;
36423;SDS011;22458;45.328;9.514;2023-03-30T07:10:37;12.30;;;7.00;;
36423;SDS011;22458;45.328;9.514;2023-03-30T07:13:05;12.38;;;7.22;;
36423;SDS011;22458;45.328;9.514;2023-03-30T07:15:33;10.52;;;6.80;;
36423;SDS011;22458;45.328;9.514;2023-03-30T07:17:58;10.38;;;6.90;;
36423;SDS011;22458;45.328;9.514;2023-03-30T07:20:25;8.77;;;6.63;;
36423;SDS011;22458;45.328;9.514;2023-03-30T07:23:13;11.95;;;7.03;;
36423;SDS011;22458;45.328;9.514;2023-03-30T07:25:39;10.32;;;6.30;;
36423;SDS011;22458;45.328;9.514;2023-03-30T07:28:13;9.65;;;7.00;;
36423;SDS011;22458;45.328;9.514;2023-03-30T07:30:40;9.98;;;7.13;;
36423;SDS011;22458;45.328;9.514;2023-03-30T07:33:08;11.15;;;7.57;;
36423;SDS011;22458;45.328;9.514;2023-03-30T07:35:34;9.68;;;7.28;;
36423;SDS011;22458;45.328;9.514;2023-03-30T07:38:03;11.90;;;7.03;;
36423;SDS011;22458;45.328;9.514;2023-03-30T07:40:35;10.68;;;7.25;;
36423;SDS011;22458;45.328;9.514;2023-03-30T07:43:03;10.38;;;6.97;;
36423;SDS011;22458;45.328;9.514;2023-03-30T07:45:29;10.40;;;6.90;;
36423;SDS011;22458;45.328;9.514;2023-03-30T07:47:55;10.27;;;6.82;;
36423;SDS011;22458;45.328;9.514;2023-03-30T07:50:21;11.10;;;7.15;;
36423;SDS011;22458;45.328;9.514;2023-03-30T07:52:51;13.73;;;7.82;;
36423;SDS011;22458;45.328;9.514;2023-03-30T07:55:17;11.65;;;7.25;;
36423;SDS011;22458;45.328;9.514;2023-03-30T07:57:50;7.95;;;7.13;;
36423;SDS011;22458;45.328;9.514;2023-03-30T08:00:16;10.70;;;7.70;;
36423;SDS011;22458;45.328;9.514;2023-03-30T08:03:01;10.90;;;8.32;;
36423;SDS011;22458;45.328;9.514;2023-03-30T08:05:28;12.73;;;7.68;;
36423;SDS011;22458;45.328;9.514;2023-03-30T08:08:05;12.20;;;7.55;;
36423;SDS011;22458;45.328;9.514;2023-03-30T08:10:33;13.30;;;8.02;;
36423;SDS011;22458;45.328;9.514;2023-03-30T08:13:00;11.02;;;7.95;;
36423;SDS011;22458;45.328;9.514;2023-03-30T08:15:26;8.07;;;7.13;;
36423;SDS011;22458;45.328;9.514;2023-03-30T08:17:52;12.98;;;7.47;;
36423;SDS011;22458;45.328;9.514;2023-03-30T08:20:18;12.65;;;7.75;;
36423;SDS011;22458;45.328;9.514;2023-03-30T08:22:44;11.63;;;7.93;;
36423;SDS011;22458;45.328;9.514;2023-03-30T08:25:09;13.32;;;8.32;;
36423;SDS011;22458;45.328;9.514;2023-03-30T08:27:36;10.45;;;8.18;;
36423;SDS011;22458;45.328;9.514;2023-03-30T08:30:02;17.35;;;8.65;;
36423;SDS011;22458;45.328;9.514;2023-03-30T08:32:28;11.85;;;6.80;;
36423;SDS011;22458;45.328;9.514;2023-03-30T08:34:54;12.07;;;7.10;;
36423;SDS011;22458;45.328;9.514;2023-03-30T08:37:19;13.18;;;7.50;;
36423;SDS011;22458;45.328;9.514;2023-03-30T08:39:45;11.98;;;6.90;;
36423;SDS011;22458;45.328;9.514;2023-03-30T08:42:14;10.50;;;6.78;;
36423;SDS011;22458;45.328;9.514;2023-03-30T08:45:01;13.60;;;8.02;;
36423;SDS011;22458;45.328;9.514;2023-03-30T08:47:34;9.52;;;7.22;;
36423;SDS011;22458;45.328;9.514;2023-03-30T08:52:32;9.02;;;6.90;;
36423;SDS011;22458;45.328;9.514;2023-03-30T08:55:00;10.48;;;6.88;;
36423;SDS011;22458;45.328;9.514;2023-03-30T08:58:11;9.80;;;6.85;;
36423;SDS011;22458;45.328;9.514;2023-03-30T09:02:59;9.23;;;6.68;;
36423;SDS011;22458;45.328;9.514;2023-03-30T09:05:42;8.63;;;7.18;;
36423;SDS011;22458;45.328;9.514;2023-03-30T09:08:16;11.52;;;7.35;;
36423;SDS011;22458;45.328;9.514;2023-03-30T09:10:51;10.48;;;6.78;;
36423;SDS011;22458;45.328;9.514;2023-03-30T09:13:22;12.18;;;7.78;;
36423;SDS011;22458;45.328;9.514;2023-03-30T09:15:59;15.70;;;8.07;;
36423;SDS011;22458;45.328;9.514;2023-03-30T09:18:34;10.73;;;6.95;;
36423;SDS011;22458;45.328;9.514;2023-03-30T09:21:02;11.75;;;8.02;;
36423;SDS011;22458;45.328;9.514;2023-03-30T09:23:30;11.50;;;7.45;;
36423;SDS011;22458;45.328;9.514;2023-03-30T09:28:53;11.02;;;7.88;;
36423;SDS011;22458;45.328;9.514;2023-03-30T09:31:43;12.50;;;8.02;;
36423;SDS011;22458;45.328;9.514;2023-03-30T09:37:14;12.43;;;8.63;;
36423;SDS011;22458;45.328;9.514;2023-03-30T09:39:43;12.13;;;7.90;;
36423;SDS011;22458;45.328;9.514;2023-03-30T09:47:32;11.70;;;9.20;;
36423;SDS011;22458;45.328;9.514;2023-03-30T09:50:02;13.75;;;9.15;;
36423;SDS011;22458;45.328;9.514;2023-03-30T09:52:29;13.98;;;8.88;;
36423;SDS011;22458;45.328;9.514;2023-03-30T09:55:03;13.15;;;9.18;;
36423;SDS011;22458;45.328;9.514;2023-03-30T09:57:47;11.65;;;8.07;;
36423;SDS011;22458;45.328;9.514;2023-03-30T10:00:28;14.57;;;9.52;;
36423;SDS011;22458;45.328;9.514;2023-03-30T10:03:02;10.45;;;8.18;;
36423;SDS011;22458;45.328;9.514;2023-03-30T10:05:33;10.52;;;9.43;;
36423;SDS011;22458;45.328;9.514;2023-03-30T10:08:01;10.52;;;8.07;;
36423;SDS011;22458;45.328;9.514;2023-03-30T10:10:43;11.25;;;7.47;;
36423;SDS011;22458;45.328;9.514;2023-03-30T10:21:04;11.18;;;7.78;;
36423;SDS011;22458;45.328;9.514;2023-03-30T10:23:37;13.48;;;8.15;;
36423;SDS011;22458;45.328;9.514;2023-03-30T10:26:06;10.93;;;7.95;;
36423;SDS011;22458;45.328;9.514;2023-03-30T10:31:35;10.25;;;8.35;;
36423;SDS011;22458;45.328;9.514;2023-03-30T10:34:03;11.25;;;7.75;;
36423;SDS011;22458;45.328;9.514;2023-03-30T10:36:38;17.77;;;8.48;;
36423;SDS011;22458;45.328;9.514;2023-03-30T10:39:17;12.35;;;7.43;;
36423;SDS011;22458;45.328;9.514;2023-03-30T10:41:52;11.32;;;7.75;;
36423;SDS011;22458;45.328;9.514;2023-03-30T10:46:51;10.75;;;7.78;;
36423;SDS011;22458;45.328;9.514;2023-03-30T10:57:23;9.68;;;7.25;;
36423;SDS011;22458;45.328;9.514;2023-03-30T11:03:05;11.70;;;7.43;;
36423;SDS011;22458;45.328;9.514;2023-03-30T11:05:37;7.75;;;6.40;;
36423;SDS011;22458;45.328;9.514;2023-03-30T11:08:16;10.25;;;6.35;;
36423;SDS011;22458;45.328;9.514;2023-03-30T11:10:49;9.57;;;6.50;;
36423;SDS011;22458;45.328;9.514;2023-03-30T11:13:20;11.13;;;5.50;;
36423;SDS011;22458;45.328;9.514;2023-03-30T11:15:54;6.82;;;5.43;;
36423;SDS011;22458;45.328;9.514;2023-03-30T11:18:36;9.05;;;5.90;;
36423;SDS011;22458;45.328;9.514;2023-03-30T11:21:10;8.95;;;5.22;;
36423;SDS011;22458;45.328;9.514;2023-03-30T11:23:56;9.95;;;6.05;;
36423;SDS011;22458;45.328;9.514;2023-03-30T11:26:33;8.68;;;6.28;;
36423;SDS011;22458;45.328;9.514;2023-03-30T11:34:25;7.97;;;5.15;;
36423;SDS011;22458;45.328;9.514;2023-03-30T11:39:46;6.60;;;5.45;;
36423;SDS011;22458;45.328;9.514;2023-03-30T11:42:30;6.78;;;5.07;;
36423;SDS011;22458;45.328;9.514;2023-03-30T11:44:56;7.45;;;5.10;;
36423;SDS011;22458;45.328;9.514;2023-03-30T12:01:29;6.43;;;5.38;;
36423;SDS011;22458;45.328;9.514;2023-03-30T12:04:11;8.45;;;6.00;;
36423;SDS011;22458;45.328;9.514;2023-03-30T12:06:54;6.57;;;4.68;;
36423;SDS011;22458;45.328;9.514;2023-03-30T12:20:33;5.72;;;4.65;;
36423;SDS011;22458;45.328;9.514;2023-03-30T12:26:23;7.75;;;4.78;;
36423;SDS011;22458;45.328;9.514;2023-03-30T12:29:12;6.60;;;5.05;;
36423;SDS011;22458;45.328;9.514;2023-03-30T12:34:22;6.18;;;4.50;;
36423;SDS011;22458;45.328;9.514;2023-03-30T12:39:40;7.47;;;5.10;;
36423;SDS011;22458;45.328;9.514;2023-03-30T12:44:56;8.48;;;4.97;;
36423;SDS011;22458;45.328;9.514;2023-03-30T12:56:19;6.60;;;4.50;;
36423;SDS011;22458;45.328;9.514;2023-03-30T13:01:59;8.93;;;4.25;;
36423;SDS011;22458;45.328;9.514;2023-03-30T13:04:32;5.63;;;4.72;;
36423;SDS011;22458;45.328;9.514;2023-03-30T13:07:05;6.18;;;5.50;;
36423;SDS011;22458;45.328;9.514;2023-03-30T13:12:56;6.53;;;5.10;;
36423;SDS011;22458;45.328;9.514;2023-03-30T13:21:23;9.05;;;5.38;;
36423;SDS011;22458;45.328;9.514;2023-03-30T13:23:31;7.78;;;5.13;;
36423;SDS011;22458;45.328;9.514;2023-03-30T13:34:30;9.25;;;5.18;;
36423;SDS011;22458;45.328;9.514;2023-03-30T13:37:16;8.27;;;5.65;;
36423;SDS011;22458;45.328;9.514;2023-03-30T13:40:18;8.52;;;5.70;;
36423;SDS011;22458;45.328;9.514;2023-03-30T13:51:19;7.38;;;4.57;;
36423;SDS011;22458;45.328;9.514;2023-03-30T13:54:32;7.38;;;4.65;;
36423;SDS011;22458;45.328;9.514;2023-03-30T13:57:02;5.90;;;4.25;;
36423;SDS011;22458;45.328;9.514;2023-03-30T13:59:30;8.73;;;4.50;;
36423;SDS011;22458;45.328;9.514;2023-03-30T14:01:59;5.28;;;3.92;;
36423;SDS011;22458;45.328;9.514;2023-03-30T14:04:29;6.95;;;4.50;;
36423;SDS011;22458;45.328;9.514;2023-03-30T14:06:56;8.07;;;4.35;;
36423;SDS011;22458;45.328;9.514;2023-03-30T14:09:29;4.40;;;3.63;;
36423;SDS011;22458;45.328;9.514;2023-03-30T14:11:59;6.65;;;4.53;;
36423;SDS011;22458;45.328;9.514;2023-03-30T14:16:54;4.15;;;2.70;;
36423;SDS011;22458;45.328;9.514;2023-03-30T14:19:23;6.90;;;3.33;;
36423;SDS011;22458;45.328;9.514;2023-03-30T14:22:01;4.60;;;3.20;;
36423;SDS011;22458;45.328;9.514;2023-03-30T14:24:30;5.82;;;3.13;;
36423;SDS011;22458;45.328;9.514;2023-03-30T14:26:59;5.87;;;2.67;;
36423;SDS011;22458;45.328;9.514;2023-03-30T14:29:27;5.45;;;2.10;;
36423;SDS011;22458;45.328;9.514;2023-03-30T14:31:55;6.60;;;1.10;;
36423;SDS011;22458;45.328;9.514;2023-03-30T14:36:57;4.38;;;1.17;;
36423;SDS011;22458;45.328;9.514;2023-03-30T14:39:37;2.92;;;1.10;;
36423;SDS011;22458;45.328;9.514;2023-03-30T14:42:14;2.45;;;0.75;;
36423;SDS011;22458;45.328;9.514;2023-03-30T14:47:13;1.95;;;0.60;;
36423;SDS011;22458;45.328;9.514;2023-03-30T14:49:39;2.60;;;0.90;;
36423;SDS011;22458;45.328;9.514;2023-03-30T14:52:22;2.30;;;0.70;;
36423;SDS011;22458;45.328;9.514;2023-03-30T14:54:54;2.92;;;0.88;;
36423;SDS011;22458;45.328;9.514;2023-03-30T14:57:21;2.75;;;0.80;;
36423;SDS011;22458;45.328;9.514;2023-03-30T14:59:52;3.50;;;1.17;;
36423;SDS011;22458;45.328;9.514;2023-03-30T15:02:25;6.22;;;1.80;;
36423;SDS011;22458;45.328;9.514;2023-03-30T15:04:54;4.40;;;1.13;;
36423;SDS011;22458;45.328;9.514;2023-03-30T15:07:21;2.65;;;0.93;;
36423;SDS011;22458;45.328;9.514;2023-03-30T15:09:55;5.82;;;1.60;;
36423;SDS011;22458;45.328;9.514;2023-03-30T15:12:27;2.15;;;0.80;;
36423;SDS011;22458;45.328;9.514;2023-03-30T15:15:04;5.10;;;1.02;;
36423;SDS011;22458;45.328;9.514;2023-03-30T15:17:31;3.58;;;0.80;;
36423;SDS011;22458;45.328;9.514;2023-03-30T15:19:59;5.07;;;1.27;;
36423;SDS011;22458;45.328;9.514;2023-03-30T15:22:34;5.00;;;1.10;;
36423;SDS011;22458;45.328;9.514;2023-03-30T15:25:04;5.45;;;1.23;;
36423;SDS011;22458;45.328;9.514;2023-03-30T15:27:34;4.25;;;1.13;;
36423;SDS011;22458;45.328;9.514;2023-03-30T15:30:02;3.05;;;1.08;;
36423;SDS011;22458;45.328;9.514;2023-03-30T15:32:38;2.15;;;0.90;;
36423;SDS011;22458;45.328;9.514;2023-03-30T15:37:37;3.35;;;1.20;;
36423;SDS011;22458;45.328;9.514;2023-03-30T15:40:35;6.28;;;0.90;;
36423;SDS011;22458;45.328;9.514;2023-03-30T15:45:46;3.67;;;1.00;;
36423;SDS011;22458;45.328;9.514;2023-03-30T15:48:17;4.43;;;0.85;;
36423;SDS011;22458;45.328;9.514;2023-03-30T15:50:53;3.67;;;0.90;;
36423;SDS011;22458;45.328;9.514;2023-03-30T15:56:08;6.22;;;0.95;;
36423;SDS011;22458;45.328;9.514;2023-03-30T15:58:37;3.05;;;1.08;;
36423;SDS011;22458;45.328;9.514;2023-03-30T16:01:03;5.32;;;0.73;;
36423;SDS011;22458;45.328;9.514;2023-03-30T16:03:30;2.75;;;1.02;;
36423;SDS011;22458;45.328;9.514;2023-03-30T16:05:59;5.38;;;1.10;;
36423;SDS011;22458;45.328;9.514;2023-03-30T16:08:25;5.70;;;1.25;;
36423;SDS011;22458;45.328;9.514;2023-03-30T16:10:51;6.78;;;1.23;;
36423;SDS011;22458;45.328;9.514;2023-03-30T16:13:17;3.08;;;0.85;;
36423;SDS011;22458;45.328;9.514;2023-03-30T16:15:43;5.03;;;1.15;;
36423;SDS011;22458;45.328;9.514;2023-03-30T16:18:11;7.05;;;1.35;;
36423;SDS011;22458;45.328;9.514;2023-03-30T16:20:40;5.57;;;2.40;;
36423;SDS011;22458;45.328;9.514;2023-03-30T16:23:06;5.47;;;1.50;;
36423;SDS011;22458;45.328;9.514;2023-03-30T16:25:34;5.78;;;2.05;;
36423;SDS011;22458;45.328;9.514;2023-03-30T16:28:00;3.13;;;1.45;;
36423;SDS011;22458;45.328;9.514;2023-03-30T16:30:33;3.67;;;1.80;;
36423;SDS011;22458;45.328;9.514;2023-03-30T16:33:02;4.43;;;1.88;;
36423;SDS011;22458;45.328;9.514;2023-03-30T16:35:28;7.75;;;5.03;;
36423;SDS011;22458;45.328;9.514;2023-03-30T16:37:55;6.05;;;2.42;;
36423;SDS011;22458;45.328;9.514;2023-03-30T16:40:37;3.88;;;1.50;;
36423;SDS011;22458;45.328;9.514;2023-03-30T16:43:04;4.50;;;1.25;;
36423;SDS011;22458;45.328;9.514;2023-03-30T16:45:31;3.65;;;1.30;;
36423;SDS011;22458;45.328;9.514;2023-03-30T16:47:57;5.28;;;2.55;;
36423;SDS011;22458;45.328;9.514;2023-03-30T16:52:58;4.43;;;2.33;;
36423;SDS011;22458;45.328;9.514;2023-03-30T16:55:24;3.30;;;1.95;;
36423;SDS011;22458;45.328;9.514;2023-03-30T16:57:49;4.88;;;1.85;;
36423;SDS011;22458;45.328;9.514;2023-03-30T17:00:16;3.45;;;1.42;;
36423;SDS011;22458;45.328;9.514;2023-03-30T17:02:50;5.43;;;2.30;;
36423;SDS011;22458;45.328;9.514;2023-03-30T17:05:16;5.22;;;2.75;;
36423;SDS011;22458;45.328;9.514;2023-03-30T17:07:42;6.78;;;2.22;;
36423;SDS011;22458;45.328;9.514;2023-03-30T17:10:13;3.55;;;1.50;;
36423;SDS011;22458;45.328;9.514;2023-03-30T17:12:57;5.32;;;2.10;;
36423;SDS011;22458;45.328;9.514;2023-03-30T17:15:24;5.13;;;1.73;;
36423;SDS011;22458;45.328;9.514;2023-03-30T17:17:51;5.65;;;1.45;;
36423;SDS011;22458;45.328;9.514;2023-03-30T17:20:19;4.80;;;2.95;;
36423;SDS011;22458;45.328;9.514;2023-03-30T17:22:58;5.50;;;1.92;;
36423;SDS011;22458;45.328;9.514;2023-03-30T17:25:24;1.90;;;1.15;;
36423;SDS011;22458;45.328;9.514;2023-03-30T17:27:54;4.57;;;1.42;;
36423;SDS011;22458;45.328;9.514;2023-03-30T17:30:27;4.57;;;1.92;;
36423;SDS011;22458;45.328;9.514;2023-03-30T17:32:55;5.07;;;1.77;;
36423;SDS011;22458;45.328;9.514;2023-03-30T17:35:21;3.75;;;1.80;;
36423;SDS011;22458;45.328;9.514;2023-03-30T17:37:48;4.03;;;2.08;;
36423;SDS011;22458;45.328;9.514;2023-03-30T17:40:16;4.82;;;1.80;;
36423;SDS011;22458;45.328;9.514;2023-03-30T17:42:42;5.13;;;1.17;;
36423;SDS011;22458;45.328;9.514;2023-03-30T17:45:08;4.10;;;1.08;;
36423;SDS011;22458;45.328;9.514;2023-03-30T17:47:35;3.78;;;1.52;;
36423;SDS011;22458;45.328;9.514;2023-03-30T17:50:01;4.80;;;1.10;;
36423;SDS011;22458;45.328;9.514;2023-03-30T17:52:35;11.70;;;7.80;;
36423;SDS011;22458;45.328;9.514;2023-03-30T17:55:01;10.07;;;6.22;;
36423;SDS011;22458;45.328;9.514;2023-03-30T17:57:27;7.38;;;2.08;;
36423;SDS011;22458;45.328;9.514;2023-03-30T17:59:55;7.47;;;1.33;;
36423;SDS011;22458;45.328;9.514;2023-03-30T18:02:21;3.80;;;1.27;;
36423;SDS011;22458;45.328;9.514;2023-03-30T18:04:46;3.47;;;1.88;;
36423;SDS011;22458;45.328;9.514;2023-03-30T18:07:12;5.75;;;1.60;;
36423;SDS011;22458;45.328;9.514;2023-03-30T18:09:38;3.38;;;1.83;;
36423;SDS011;22458;45.328;9.514;2023-03-30T18:12:04;4.25;;;1.13;;
36423;SDS011;22458;45.328;9.514;2023-03-30T18:14:30;3.63;;;1.27;;
36423;SDS011;22458;45.328;9.514;2023-03-30T18:16:57;2.53;;;1.20;;
36423;SDS011;22458;45.328;9.514;2023-03-30T18:19:22;4.97;;;1.52;;
36423;SDS011;22458;45.328;9.514;2023-03-30T18:21:48;4.05;;;1.35;;
36423;SDS011;22458;45.328;9.514;2023-03-30T18:24:14;4.30;;;1.40;;
36423;SDS011;22458;45.328;9.514;2023-03-30T18:26:40;3.83;;;1.50;;